createdAt,value
2022-09-29T00:00:59.469Z,995.09
2022-09-29T00:01:59.479Z,995.08
2022-09-29T00:02:59.473Z,995.09
2022-09-29T00:03:59.463Z,995.08
2022-09-29T00:04:59.412Z,995.08
2022-09-29T00:05:59.477Z,995.08
2022-09-29T00:06:59.373Z,995.08
2022-09-29T00:07:59.403Z,995.09
2022-09-29T00:08:59.340Z,995.10
2022-09-29T00:09:59.333Z,995.11
2022-09-29T00:10:59.350Z,995.12
2022-09-29T00:11:59.397Z,995.12
2022-09-29T00:12:59.257Z,995.12
2022-09-29T00:13:59.300Z,995.11
2022-09-29T00:14:59.244Z,995.11
2022-09-29T00:15:59.313Z,995.10
2022-09-29T00:16:59.218Z,995.09
2022-09-29T00:18:13.161Z,995.09
2022-09-29T00:18:59.290Z,995.09
2022-09-29T00:19:59.192Z,995.08
2022-09-29T00:20:59.242Z,995.08
2022-09-29T00:21:59.188Z,995.08
2022-09-29T00:22:59.153Z,995.08
2022-09-29T00:23:59.155Z,995.07
2022-09-29T00:24:59.170Z,995.08
2022-09-29T00:25:59.121Z,995.08
2022-09-29T00:26:59.161Z,995.09
2022-09-29T00:27:59.104Z,995.09
2022-09-29T00:28:59.167Z,995.10
2022-09-29T00:29:59.085Z,995.10
2022-09-29T00:30:59.069Z,995.11
2022-09-29T00:31:59.183Z,995.12
2022-09-29T00:32:59.079Z,995.12
2022-09-29T00:33:59.053Z,995.12
2022-09-29T00:34:59.069Z,995.11
2022-09-29T00:35:59.099Z,995.10
2022-09-29T00:36:59.084Z,995.09
2022-09-29T00:37:59.077Z,995.09
2022-09-29T00:38:59.016Z,995.09
2022-09-29T00:39:58.995Z,995.09
2022-09-29T00:40:59.164Z,995.10
2022-09-29T00:41:58.998Z,995.10
2022-09-29T00:42:58.998Z,995.10
2022-09-29T00:43:58.985Z,995.11
2022-09-29T00:44:59.006Z,995.11
2022-09-29T00:45:58.984Z,995.11
2022-09-29T00:46:58.944Z,995.11
2022-09-29T00:47:58.935Z,995.12
2022-09-29T00:48:58.962Z,995.12
2022-09-29T00:49:58.980Z,995.12
2022-09-29T00:50:58.897Z,995.11
2022-09-29T00:51:58.926Z,995.11
2022-09-29T00:52:58.879Z,995.11
2022-09-29T00:53:58.935Z,995.10
2022-09-29T00:54:58.834Z,995.09
2022-09-29T00:55:58.894Z,995.08
2022-09-29T00:56:58.795Z,995.08
2022-09-29T00:57:58.786Z,995.08
2022-09-29T00:58:58.879Z,995.09
2022-09-29T00:59:58.824Z,995.09
2022-09-29T01:00:58.806Z,995.09
2022-09-29T01:01:58.837Z,995.10
2022-09-29T01:02:58.740Z,995.10
2022-09-29T01:03:58.748Z,995.10
2022-09-29T01:04:58.749Z,995.11
2022-09-29T01:05:58.783Z,995.11
2022-09-29T01:06:58.745Z,995.10
2022-09-29T01:07:58.696Z,995.10
2022-09-29T01:08:58.714Z,995.10
2022-09-29T01:09:58.719Z,995.11
2022-09-29T01:10:58.701Z,995.10
2022-09-29T01:11:58.720Z,995.08
2022-09-29T01:12:58.733Z,995.08
2022-09-29T01:13:58.682Z,995.08
2022-09-29T01:14:58.626Z,995.08
2022-09-29T01:15:58.782Z,995.07
2022-09-29T01:16:58.607Z,995.06
2022-09-29T01:17:58.621Z,995.06
2022-09-29T01:18:58.634Z,995.06
2022-09-29T01:20:02.077Z,995.05
2022-09-29T01:20:58.616Z,995.05
2022-09-29T01:21:58.613Z,995.06
2022-09-29T01:22:58.585Z,995.06
2022-09-29T01:23:58.549Z,995.06
2022-09-29T01:24:58.532Z,995.07
2022-09-29T01:25:58.562Z,995.08
2022-09-29T01:26:58.574Z,995.09
2022-09-29T01:27:58.541Z,995.10
2022-09-29T01:28:58.531Z,995.11
2022-09-29T01:29:58.538Z,995.12
2022-09-29T01:30:58.474Z,995.13
2022-09-29T01:31:58.510Z,995.13
2022-09-29T01:32:58.529Z,995.13
2022-09-29T01:33:58.566Z,995.14
2022-09-29T01:34:58.455Z,995.14
2022-09-29T01:35:58.470Z,995.14
2022-09-29T01:36:58.413Z,995.15
2022-09-29T01:37:58.438Z,995.15
2022-09-29T01:38:58.391Z,995.16
2022-09-29T01:39:58.402Z,995.16
2022-09-29T01:40:58.489Z,995.16
2022-09-29T01:41:58.408Z,995.16
2022-09-29T01:42:58.431Z,995.17
2022-09-29T01:43:58.338Z,995.18
2022-09-29T01:44:58.343Z,995.18
2022-09-29T01:45:58.422Z,995.19
2022-09-29T01:46:58.386Z,995.19
2022-09-29T01:47:58.286Z,995.19
2022-09-29T01:48:58.339Z,995.18
2022-09-29T01:49:58.294Z,995.17
2022-09-29T01:50:58.294Z,995.16
2022-09-29T01:51:58.292Z,995.15
2022-09-29T01:52:58.347Z,995.13
2022-09-29T01:53:58.278Z,995.13
2022-09-29T01:54:58.226Z,995.13
2022-09-29T01:55:58.248Z,995.14
2022-09-29T01:56:58.231Z,995.14
2022-09-29T01:57:58.198Z,995.14
2022-09-29T01:58:58.215Z,995.13
2022-09-29T01:59:58.172Z,995.13
2022-09-29T02:00:58.248Z,995.12
2022-09-29T02:02:00.824Z,995.11
2022-09-29T02:02:58.161Z,995.10
2022-09-29T02:03:58.158Z,995.08
2022-09-29T02:04:58.156Z,995.08
2022-09-29T02:05:58.123Z,995.09
2022-09-29T02:06:58.155Z,995.09
2022-09-29T02:07:58.132Z,995.10
2022-09-29T02:08:58.084Z,995.11
2022-09-29T02:09:58.139Z,995.10
2022-09-29T02:10:58.083Z,995.11
2022-09-29T02:11:58.120Z,995.11
2022-09-29T02:12:58.036Z,995.11
2022-09-29T02:13:58.042Z,995.11
2022-09-29T02:14:58.086Z,995.13
2022-09-29T02:15:58.118Z,995.13
2022-09-29T02:16:58.032Z,995.13
2022-09-29T02:17:58.001Z,995.14
2022-09-29T02:18:58.715Z,995.15
2022-09-29T02:19:57.980Z,995.15
2022-09-29T02:20:57.993Z,995.15
2022-09-29T02:21:58.008Z,995.15
2022-09-29T02:22:57.925Z,995.15
2022-09-29T02:23:57.932Z,995.16
2022-09-29T02:24:57.949Z,995.17
2022-09-29T02:25:57.945Z,995.18
2022-09-29T02:26:57.954Z,995.18
2022-09-29T02:27:57.940Z,995.19
2022-09-29T02:28:57.888Z,995.21
2022-09-29T02:29:57.903Z,995.23
2022-09-29T02:30:57.946Z,995.24
2022-09-29T02:31:57.935Z,995.24
2022-09-29T02:32:57.816Z,995.25
2022-09-29T02:33:57.850Z,995.25
2022-09-29T02:34:57.838Z,995.25
2022-09-29T02:35:57.877Z,995.26
2022-09-29T02:36:57.813Z,995.25
2022-09-29T02:37:57.837Z,995.25
2022-09-29T02:38:57.822Z,995.25
2022-09-29T02:39:57.797Z,995.26
2022-09-29T02:40:57.843Z,995.26
2022-09-29T02:41:57.782Z,995.26
2022-09-29T02:42:57.724Z,995.26
2022-09-29T02:43:57.772Z,995.26
2022-09-29T02:44:57.772Z,995.26
2022-09-29T02:45:57.804Z,995.26
2022-09-29T02:46:57.750Z,995.26
2022-09-29T02:47:57.714Z,995.26
2022-09-29T02:48:57.701Z,995.26
2022-09-29T02:49:57.704Z,995.25
2022-09-29T02:50:57.677Z,995.25
2022-09-29T02:51:57.670Z,995.23
2022-09-29T02:52:57.662Z,995.23
2022-09-29T02:53:57.689Z,995.22
2022-09-29T02:54:57.617Z,995.22
2022-09-29T02:55:57.627Z,995.23
2022-09-29T02:56:57.667Z,995.23
2022-09-29T02:57:57.602Z,995.23
2022-09-29T02:58:57.589Z,995.24
2022-09-29T02:59:57.585Z,995.25
2022-09-29T03:00:57.622Z,995.26
2022-09-29T03:01:57.565Z,995.26
2022-09-29T03:02:57.560Z,995.25
2022-09-29T03:04:00.928Z,995.25
2022-09-29T03:04:57.533Z,995.25
2022-09-29T03:05:57.503Z,995.25
2022-09-29T03:06:57.502Z,995.26
2022-09-29T03:07:57.553Z,995.25
2022-09-29T03:08:57.540Z,995.25
2022-09-29T03:09:57.524Z,995.24
2022-09-29T03:10:57.434Z,995.24
2022-09-29T03:11:57.449Z,995.24
2022-09-29T03:12:57.497Z,995.24
2022-09-29T03:13:57.442Z,995.25
2022-09-29T03:14:57.435Z,995.24
2022-09-29T03:15:57.467Z,995.24
2022-09-29T03:16:57.412Z,995.24
2022-09-29T03:17:57.444Z,995.24
2022-09-29T03:18:57.443Z,995.24
2022-09-29T03:19:57.456Z,995.24
2022-09-29T03:20:57.344Z,995.23
2022-09-29T03:21:57.367Z,995.23
2022-09-29T03:22:57.350Z,995.23
2022-09-29T03:23:57.892Z,995.21
2022-09-29T03:24:57.312Z,995.21
2022-09-29T03:25:57.327Z,995.20
2022-09-29T03:26:57.296Z,995.20
2022-09-29T03:27:57.341Z,995.19
2022-09-29T03:28:57.302Z,995.19
2022-09-29T03:29:57.304Z,995.18
2022-09-29T03:30:57.239Z,995.17
2022-09-29T03:31:57.294Z,995.17
2022-09-29T03:32:57.268Z,995.18
2022-09-29T03:33:57.255Z,995.19
2022-09-29T03:34:57.227Z,995.19
2022-09-29T03:35:57.246Z,995.20
2022-09-29T03:36:57.181Z,995.20
2022-09-29T03:37:57.268Z,995.20
2022-09-29T03:38:57.276Z,995.20
2022-09-29T03:39:57.169Z,995.20
2022-09-29T03:40:57.172Z,995.21
2022-09-29T03:41:57.200Z,995.21
2022-09-29T03:42:57.172Z,995.21
2022-09-29T03:43:57.157Z,995.22
2022-09-29T03:44:57.211Z,995.23
2022-09-29T03:45:57.166Z,995.23
2022-09-29T03:46:57.104Z,995.23
2022-09-29T03:47:57.111Z,995.23
2022-09-29T03:48:57.089Z,995.23
2022-09-29T03:49:57.125Z,995.23
2022-09-29T03:50:57.068Z,995.23
2022-09-29T03:51:57.032Z,995.23
2022-09-29T03:52:57.063Z,995.24
2022-09-29T03:53:57.070Z,995.24
2022-09-29T03:54:56.994Z,995.24
2022-09-29T03:55:57.007Z,995.25
2022-09-29T03:56:57.015Z,995.25
2022-09-29T03:57:56.994Z,995.27
2022-09-29T03:58:57.018Z,995.28
2022-09-29T03:59:56.969Z,995.30
2022-09-29T04:00:57.093Z,995.31
2022-09-29T04:01:56.986Z,995.32
2022-09-29T04:02:56.965Z,995.33
2022-09-29T04:03:56.943Z,995.34
2022-09-29T04:04:56.923Z,995.34
2022-09-29T04:05:56.881Z,995.35
2022-09-29T04:06:56.855Z,995.36
2022-09-29T04:07:56.884Z,995.37
2022-09-29T04:08:56.909Z,995.37
2022-09-29T04:09:56.914Z,995.38
2022-09-29T04:10:56.844Z,995.39
2022-09-29T04:11:56.844Z,995.40
2022-09-29T04:12:56.859Z,995.41
2022-09-29T04:13:56.833Z,995.41
2022-09-29T04:14:56.807Z,995.40
2022-09-29T04:15:56.833Z,995.41
2022-09-29T04:16:56.752Z,995.41
2022-09-29T04:17:56.763Z,995.41
2022-09-29T04:18:56.837Z,995.40
2022-09-29T04:19:56.771Z,995.40
2022-09-29T04:20:56.730Z,995.41
2022-09-29T04:21:56.765Z,995.40
2022-09-29T04:22:56.733Z,995.40
2022-09-29T04:23:56.736Z,995.40
2022-09-29T04:24:56.728Z,995.40
2022-09-29T04:25:56.737Z,995.41
2022-09-29T04:26:56.683Z,995.42
2022-09-29T04:27:56.692Z,995.42
2022-09-29T04:28:56.693Z,995.42
2022-09-29T04:29:56.658Z,995.43
2022-09-29T04:30:56.679Z,995.44
2022-09-29T04:31:56.702Z,995.45
2022-09-29T04:32:56.739Z,995.45
2022-09-29T04:33:56.592Z,995.46
2022-09-29T04:34:56.561Z,995.47
2022-09-29T04:35:56.590Z,995.49
2022-09-29T04:36:56.646Z,995.49
2022-09-29T04:37:56.545Z,995.50
2022-09-29T04:38:56.600Z,995.51
2022-09-29T04:39:56.594Z,995.52
2022-09-29T04:40:56.547Z,995.53
2022-09-29T04:41:56.625Z,995.53
2022-09-29T04:42:56.520Z,995.53
2022-09-29T04:43:56.571Z,995.54
2022-09-29T04:44:56.487Z,995.54
2022-09-29T04:45:56.565Z,995.55
2022-09-29T04:46:56.468Z,995.55
2022-09-29T04:47:56.503Z,995.56
2022-09-29T04:48:56.467Z,995.56
2022-09-29T04:49:56.485Z,995.56
2022-09-29T04:50:56.434Z,995.56
2022-09-29T04:51:56.551Z,995.57
2022-09-29T04:52:56.523Z,995.57
2022-09-29T04:53:56.366Z,995.57
2022-09-29T04:54:56.547Z,995.57
2022-09-29T04:55:56.365Z,995.57
2022-09-29T04:56:56.376Z,995.58
2022-09-29T04:57:56.355Z,995.59
2022-09-29T04:58:56.386Z,995.61
2022-09-29T04:59:56.288Z,995.62
2022-09-29T05:00:56.391Z,995.63
2022-09-29T05:01:56.329Z,995.63
2022-09-29T05:02:56.221Z,995.65
2022-09-29T05:03:56.353Z,995.66
2022-09-29T05:04:56.250Z,995.68
2022-09-29T05:05:56.205Z,995.70
2022-09-29T05:06:56.237Z,995.71
2022-09-29T05:07:56.211Z,995.72
2022-09-29T05:08:56.191Z,995.74
2022-09-29T05:09:56.193Z,995.75
2022-09-29T05:10:56.154Z,995.76
2022-09-29T05:11:56.203Z,995.78
2022-09-29T05:12:56.189Z,995.79
2022-09-29T05:13:56.114Z,995.80
2022-09-29T05:14:56.130Z,995.82
2022-09-29T05:15:56.215Z,995.83
2022-09-29T05:16:56.207Z,995.85
2022-09-29T05:17:56.134Z,995.86
2022-09-29T05:18:56.087Z,995.87
2022-09-29T05:19:56.124Z,995.88
2022-09-29T05:21:22.916Z,995.89
2022-09-29T05:21:56.141Z,995.91
2022-09-29T05:22:56.035Z,995.91
2022-09-29T05:23:56.092Z,995.92
2022-09-29T05:24:56.076Z,995.93
2022-09-29T05:25:56.007Z,995.94
2022-09-29T05:26:58.437Z,995.94
2022-09-29T05:27:55.994Z,995.95
2022-09-29T05:28:56.034Z,995.95
2022-09-29T05:29:55.981Z,995.97
2022-09-29T05:30:55.967Z,995.97
2022-09-29T05:31:56.026Z,995.98
2022-09-29T05:32:58.989Z,995.98
2022-09-29T05:33:55.959Z,995.98
2022-09-29T05:34:55.993Z,995.98
2022-09-29T05:35:55.920Z,995.99
2022-09-29T05:36:55.922Z,996.00
2022-09-29T05:37:55.926Z,996.01
2022-09-29T05:38:55.924Z,996.02
2022-09-29T05:39:55.887Z,996.03
2022-09-29T05:40:56.074Z,996.05
2022-09-29T05:41:59.472Z,996.05
2022-09-29T05:42:55.865Z,996.06
2022-09-29T05:43:55.802Z,996.07
2022-09-29T05:44:55.864Z,996.07
2022-09-29T05:45:55.822Z,996.08
2022-09-29T05:46:55.906Z,996.08
2022-09-29T05:47:55.824Z,996.07
2022-09-29T05:48:55.790Z,996.07
2022-09-29T05:49:55.812Z,996.07
2022-09-29T05:50:55.831Z,996.07
2022-09-29T05:51:55.929Z,996.07
2022-09-29T05:52:55.716Z,996.07
2022-09-29T05:53:55.710Z,996.07
2022-09-29T05:54:55.827Z,996.08
2022-09-29T05:55:55.713Z,996.09
2022-09-29T05:56:55.663Z,996.09
2022-09-29T05:57:55.687Z,996.10
2022-09-29T05:58:55.651Z,996.11
2022-09-29T05:59:55.639Z,996.12
2022-09-29T06:00:55.736Z,996.12
2022-09-29T06:01:55.700Z,996.13
2022-09-29T06:02:55.618Z,996.13
2022-09-29T06:03:55.611Z,996.14
2022-09-29T06:04:55.617Z,996.15
2022-09-29T06:05:55.587Z,996.15
2022-09-29T06:06:55.630Z,996.16
2022-09-29T06:07:55.555Z,996.16
2022-09-29T06:08:55.553Z,996.17
2022-09-29T06:09:55.556Z,996.18
2022-09-29T06:10:55.567Z,996.19
2022-09-29T06:11:55.556Z,996.19
2022-09-29T06:12:55.504Z,996.19
2022-09-29T06:13:55.494Z,996.19
2022-09-29T06:14:55.571Z,996.19
2022-09-29T06:15:55.521Z,996.20
2022-09-29T06:16:55.501Z,996.20
2022-09-29T06:17:55.541Z,996.21
2022-09-29T06:18:55.468Z,996.22
2022-09-29T06:19:55.476Z,996.22
2022-09-29T06:20:55.460Z,996.23
2022-09-29T06:21:55.408Z,996.23
2022-09-29T06:22:55.427Z,996.24
2022-09-29T06:23:55.464Z,996.25
2022-09-29T06:24:55.422Z,996.26
2022-09-29T06:25:55.397Z,996.28
2022-09-29T06:26:55.386Z,996.29
2022-09-29T06:27:55.375Z,996.29
2022-09-29T06:28:55.349Z,996.30
2022-09-29T06:29:55.388Z,996.32
2022-09-29T06:30:55.397Z,996.32
2022-09-29T06:31:55.421Z,996.33
2022-09-29T06:32:55.341Z,996.34
2022-09-29T06:33:55.299Z,996.35
2022-09-29T06:34:58.535Z,996.35
2022-09-29T06:35:55.310Z,996.36
2022-09-29T06:36:55.271Z,996.38
2022-09-29T06:37:55.287Z,996.38
2022-09-29T06:38:55.292Z,996.39
2022-09-29T06:39:55.210Z,996.40
2022-09-29T06:40:55.332Z,996.41
2022-09-29T06:41:55.214Z,996.41
2022-09-29T06:42:55.227Z,996.42
2022-09-29T06:43:55.178Z,996.42
2022-09-29T06:44:55.149Z,996.41
2022-09-29T06:45:55.295Z,996.41
2022-09-29T06:46:55.182Z,996.41
2022-09-29T06:47:55.193Z,996.42
2022-09-29T06:48:55.154Z,996.42
2022-09-29T06:50:01.369Z,996.44
2022-09-29T06:51:07.301Z,996.45
2022-09-29T06:51:55.134Z,996.47
2022-09-29T06:53:04.033Z,996.48
2022-09-29T06:54:03.558Z,996.50
2022-09-29T06:54:55.094Z,996.51
2022-09-29T06:55:55.038Z,996.51
2022-09-29T06:56:55.137Z,996.51
2022-09-29T06:57:55.047Z,996.51
2022-09-29T06:58:55.033Z,996.52
2022-09-29T06:59:55.069Z,996.52
2022-09-29T07:00:55.052Z,996.53
2022-09-29T07:01:55.068Z,996.55
2022-09-29T07:02:54.973Z,996.56
2022-09-29T07:03:54.998Z,996.57
2022-09-29T07:04:55.006Z,996.57
2022-09-29T07:06:18.296Z,996.57
2022-09-29T07:06:55.005Z,996.58
2022-09-29T07:08:00.075Z,996.58
2022-09-29T07:08:54.974Z,996.58
2022-09-29T07:09:54.922Z,996.59
2022-09-29T07:10:54.952Z,996.61
2022-09-29T07:11:54.909Z,996.61
2022-09-29T07:12:54.929Z,996.62
2022-09-29T07:13:55.317Z,996.63
2022-09-29T07:14:54.916Z,996.63
2022-09-29T07:15:54.886Z,996.63
2022-09-29T07:16:54.937Z,996.65
2022-09-29T07:17:54.856Z,996.66
2022-09-29T07:18:54.840Z,996.67
2022-09-29T07:19:54.827Z,996.68
2022-09-29T07:20:54.856Z,996.69
2022-09-29T07:21:54.801Z,996.70
2022-09-29T07:22:54.831Z,996.71
2022-09-29T07:23:58.750Z,996.73
2022-09-29T07:24:54.757Z,996.74
2022-09-29T07:25:54.727Z,996.75
2022-09-29T07:26:54.757Z,996.76
2022-09-29T07:27:54.723Z,996.77
2022-09-29T07:28:54.724Z,996.77
2022-09-29T07:30:03.352Z,996.77
2022-09-29T07:30:58.226Z,996.77
2022-09-29T07:31:54.750Z,996.77
2022-09-29T07:33:01.611Z,996.76
2022-09-29T07:33:54.675Z,996.76
2022-09-29T07:34:54.647Z,996.76
2022-09-29T07:35:54.721Z,996.77
2022-09-29T07:36:54.625Z,996.77
2022-09-29T07:37:54.619Z,996.78
2022-09-29T07:38:54.611Z,996.79
2022-09-29T07:39:54.621Z,996.80
2022-09-29T07:40:54.647Z,996.81
2022-09-29T07:41:54.617Z,996.82
2022-09-29T07:42:54.572Z,996.82
2022-09-29T07:43:54.553Z,996.83
2022-09-29T07:44:54.573Z,996.83
2022-09-29T07:45:54.593Z,996.84
2022-09-29T07:46:54.551Z,996.86
2022-09-29T07:47:54.531Z,996.87
2022-09-29T07:48:54.529Z,996.89
2022-09-29T07:49:54.472Z,996.90
2022-09-29T07:50:54.468Z,996.91
2022-09-29T07:51:54.453Z,996.92
2022-09-29T07:52:54.477Z,996.94
2022-09-29T07:53:54.460Z,996.95
2022-09-29T07:54:54.444Z,996.95
2022-09-29T07:55:54.478Z,996.96
2022-09-29T07:56:54.446Z,996.96
2022-09-29T07:57:54.414Z,996.98
2022-09-29T07:58:54.400Z,996.99
2022-09-29T07:59:54.441Z,997.00
2022-09-29T08:00:54.475Z,997.02
2022-09-29T08:01:54.430Z,997.02
2022-09-29T08:02:54.404Z,997.03
2022-09-29T08:03:54.394Z,997.04
2022-09-29T08:05:00.055Z,997.05
2022-09-29T08:05:54.360Z,997.07
2022-09-29T08:06:54.394Z,997.07
2022-09-29T08:07:54.314Z,997.08
2022-09-29T08:09:03.757Z,997.08
2022-09-29T08:09:54.420Z,997.08
2022-09-29T08:10:54.299Z,997.07
2022-09-29T08:12:05.154Z,997.07
2022-09-29T08:12:54.265Z,997.07
2022-09-29T08:13:54.246Z,997.08
2022-09-29T08:14:54.299Z,997.08
2022-09-29T08:15:54.238Z,997.10
2022-09-29T08:16:54.290Z,997.11
2022-09-29T08:17:54.208Z,997.11
2022-09-29T08:18:54.231Z,997.11
2022-09-29T08:19:54.230Z,997.11
2022-09-29T08:20:54.258Z,997.11
2022-09-29T08:21:54.238Z,997.12
2022-09-29T08:22:54.147Z,997.13
2022-09-29T08:23:54.160Z,997.14
2022-09-29T08:24:54.158Z,997.15
2022-09-29T08:26:01.403Z,997.16
2022-09-29T08:26:54.125Z,997.16
2022-09-29T08:27:55.840Z,997.18
2022-09-29T08:29:07.171Z,997.20
2022-09-29T08:30:00.077Z,997.21
2022-09-29T08:30:59.884Z,997.23
2022-09-29T08:31:54.173Z,997.25
2022-09-29T08:32:56.962Z,997.27
2022-09-29T08:33:55.081Z,997.28
2022-09-29T08:34:56.330Z,997.29
2022-09-29T08:35:54.007Z,997.30
2022-09-29T08:36:54.016Z,997.31
2022-09-29T08:37:53.997Z,997.32
2022-09-29T08:38:54.041Z,997.33
2022-09-29T08:39:53.992Z,997.33
2022-09-29T08:40:54.006Z,997.33
2022-09-29T08:41:54.041Z,997.34
2022-09-29T08:42:54.008Z,997.34
2022-09-29T08:43:53.909Z,997.34
2022-09-29T08:44:54.626Z,997.34
2022-09-29T08:46:00.680Z,997.34
2022-09-29T08:47:05.205Z,997.34
2022-09-29T08:47:53.949Z,997.35
2022-09-29T08:48:58.376Z,997.35
2022-09-29T08:49:53.884Z,997.36
2022-09-29T08:50:53.842Z,997.37
2022-09-29T08:51:53.817Z,997.38
2022-09-29T08:52:53.875Z,997.39
2022-09-29T08:54:02.390Z,997.39
2022-09-29T08:54:53.938Z,997.39
2022-09-29T08:55:53.812Z,997.39
2022-09-29T08:56:53.796Z,997.39
2022-09-29T08:57:53.838Z,997.40
2022-09-29T08:58:53.782Z,997.39
2022-09-29T08:59:53.785Z,997.40
2022-09-29T09:00:53.795Z,997.41
2022-09-29T09:01:53.903Z,997.42
2022-09-29T09:02:56.757Z,997.43
2022-09-29T09:03:53.747Z,997.42
2022-09-29T09:04:53.746Z,997.43
2022-09-29T09:05:53.675Z,997.42
2022-09-29T09:06:53.691Z,997.43
2022-09-29T09:07:53.701Z,997.44
2022-09-29T09:08:53.665Z,997.44
2022-09-29T09:09:53.686Z,997.44
2022-09-29T09:10:53.697Z,997.45
2022-09-29T09:11:53.651Z,997.45
2022-09-29T09:12:53.731Z,997.46
2022-09-29T09:13:53.758Z,997.48
2022-09-29T09:14:53.583Z,997.48
2022-09-29T09:15:53.639Z,997.50
2022-09-29T09:16:53.694Z,997.50
2022-09-29T09:17:53.586Z,997.50
2022-09-29T09:18:53.621Z,997.51
2022-09-29T09:19:53.584Z,997.51
2022-09-29T09:20:53.634Z,997.50
2022-09-29T09:21:53.529Z,997.50
2022-09-29T09:22:53.509Z,997.50
2022-09-29T09:23:56.784Z,997.50
2022-09-29T09:24:53.532Z,997.51
2022-09-29T09:25:53.504Z,997.52
2022-09-29T09:26:53.623Z,997.52
2022-09-29T09:27:53.464Z,997.52
2022-09-29T09:28:53.517Z,997.51
2022-09-29T09:29:53.455Z,997.52
2022-09-29T09:30:53.539Z,997.52
2022-09-29T09:31:53.448Z,997.52
2022-09-29T09:32:53.438Z,997.51
2022-09-29T09:34:03.433Z,997.51
2022-09-29T09:34:56.636Z,997.51
2022-09-29T09:35:58.726Z,997.49
2022-09-29T09:37:03.364Z,997.49
2022-09-29T09:37:53.364Z,997.48
2022-09-29T09:38:53.400Z,997.49
2022-09-29T09:39:53.393Z,997.49
2022-09-29T09:40:53.348Z,997.48
2022-09-29T09:41:53.350Z,997.48
2022-09-29T09:42:53.340Z,997.48
2022-09-29T09:43:53.385Z,997.49
2022-09-29T09:44:53.277Z,997.49
2022-09-29T09:45:53.405Z,997.50
2022-09-29T09:46:53.298Z,997.50
2022-09-29T09:47:53.298Z,997.50
2022-09-29T09:48:53.261Z,997.50
2022-09-29T09:49:53.255Z,997.52
2022-09-29T09:50:53.214Z,997.52
2022-09-29T09:51:53.245Z,997.53
2022-09-29T09:52:53.250Z,997.53
2022-09-29T09:53:53.217Z,997.53
2022-09-29T09:54:53.211Z,997.53
2022-09-29T09:55:53.178Z,997.53
2022-09-29T09:56:53.220Z,997.52
2022-09-29T09:57:53.133Z,997.53
2022-09-29T09:58:53.107Z,997.54
2022-09-29T09:59:56.642Z,997.53
2022-09-29T10:00:53.168Z,997.53
2022-09-29T10:01:53.114Z,997.53
2022-09-29T10:02:53.207Z,997.54
2022-09-29T10:03:53.117Z,997.54
2022-09-29T10:04:53.171Z,997.54
2022-09-29T10:05:53.143Z,997.55
2022-09-29T10:06:53.049Z,997.56
2022-09-29T10:07:53.052Z,997.57
2022-09-29T10:08:53.279Z,997.57
2022-09-29T10:09:53.008Z,997.58
2022-09-29T10:10:58.694Z,997.58
2022-09-29T10:11:53.005Z,997.59
2022-09-29T10:12:56.577Z,997.60
2022-09-29T10:13:52.980Z,997.60
2022-09-29T10:14:52.978Z,997.60
2022-09-29T10:15:52.988Z,997.59
2022-09-29T10:16:53.015Z,997.60
2022-09-29T10:17:52.983Z,997.61
2022-09-29T10:18:52.990Z,997.62
2022-09-29T10:19:52.900Z,997.62
2022-09-29T10:20:52.903Z,997.62
2022-09-29T10:21:52.940Z,997.62
2022-09-29T10:22:52.879Z,997.61
2022-09-29T10:23:52.892Z,997.61
2022-09-29T10:24:52.856Z,997.61
2022-09-29T10:25:52.985Z,997.61
2022-09-29T10:26:52.888Z,997.61
2022-09-29T10:27:52.929Z,997.62
2022-09-29T10:28:52.828Z,997.62
2022-09-29T10:29:52.808Z,997.64
2022-09-29T10:30:52.839Z,997.64
2022-09-29T10:31:52.810Z,997.64
2022-09-29T10:32:52.814Z,997.64
2022-09-29T10:33:52.779Z,997.63
2022-09-29T10:34:52.765Z,997.60
2022-09-29T10:35:52.747Z,997.63
2022-09-29T10:36:52.730Z,997.64
2022-09-29T10:37:52.797Z,997.64
2022-09-29T10:38:52.746Z,997.64
2022-09-29T10:39:52.723Z,997.64
2022-09-29T10:40:52.696Z,997.64
2022-09-29T10:41:52.670Z,997.65
2022-09-29T10:42:52.702Z,997.65
2022-09-29T10:43:52.737Z,997.65
2022-09-29T10:44:52.657Z,997.65
2022-09-29T10:45:52.740Z,997.65
2022-09-29T10:46:52.676Z,997.65
2022-09-29T10:47:52.621Z,997.66
2022-09-29T10:48:52.568Z,997.67
2022-09-29T10:49:52.638Z,997.68
2022-09-29T10:50:52.748Z,997.67
2022-09-29T10:51:52.571Z,997.68
2022-09-29T10:52:52.820Z,997.70
2022-09-29T10:53:52.926Z,997.72
2022-09-29T10:54:52.582Z,997.73
2022-09-29T10:55:52.614Z,997.72
2022-09-29T10:56:52.517Z,997.72
2022-09-29T10:57:52.557Z,997.72
2022-09-29T10:59:03.249Z,997.73
2022-09-29T10:59:52.489Z,997.72
2022-09-29T11:00:52.535Z,997.73
2022-09-29T11:01:52.594Z,997.73
2022-09-29T11:02:52.474Z,997.74
2022-09-29T11:03:52.514Z,997.76
2022-09-29T11:04:52.444Z,997.77
2022-09-29T11:05:52.442Z,997.77
2022-09-29T11:06:52.412Z,997.78
2022-09-29T11:07:52.434Z,997.78
2022-09-29T11:08:52.435Z,997.80
2022-09-29T11:09:52.415Z,997.80
2022-09-29T11:10:52.385Z,997.77
2022-09-29T11:11:54.466Z,997.76
2022-09-29T11:12:52.403Z,997.76
2022-09-29T11:13:52.434Z,997.78
2022-09-29T11:14:52.352Z,997.79
2022-09-29T11:15:52.399Z,997.79
2022-09-29T11:16:52.388Z,997.80
2022-09-29T11:17:52.311Z,997.76
2022-09-29T11:18:52.323Z,997.76
2022-09-29T11:19:52.287Z,997.76
2022-09-29T11:20:52.256Z,997.77
2022-09-29T11:21:52.309Z,997.76
2022-09-29T11:22:52.243Z,997.76
2022-09-29T11:23:52.317Z,997.78
2022-09-29T11:24:52.215Z,997.79
2022-09-29T11:25:52.284Z,997.77
2022-09-29T11:26:52.184Z,997.76
2022-09-29T11:27:52.221Z,997.77
2022-09-29T11:28:52.236Z,997.78
2022-09-29T11:29:52.168Z,997.79
2022-09-29T11:30:52.241Z,997.79
2022-09-29T11:31:52.190Z,997.82
2022-09-29T11:32:52.161Z,997.82
2022-09-29T11:33:52.202Z,997.82
2022-09-29T11:34:52.106Z,997.82
2022-09-29T11:35:52.210Z,997.82
2022-09-29T11:36:52.162Z,997.83
2022-09-29T11:37:52.113Z,997.83
2022-09-29T11:38:52.103Z,997.84
2022-09-29T11:39:52.093Z,997.86
2022-09-29T11:40:52.109Z,997.87
2022-09-29T11:41:52.119Z,997.88
2022-09-29T11:42:52.093Z,997.88
2022-09-29T11:43:52.061Z,997.86
2022-09-29T11:44:52.070Z,997.86
2022-09-29T11:45:52.095Z,997.86
2022-09-29T11:46:52.050Z,997.84
2022-09-29T11:47:52.083Z,997.85
2022-09-29T11:48:51.967Z,997.87
2022-09-29T11:49:52.012Z,997.87
2022-09-29T11:50:51.994Z,997.89
2022-09-29T11:51:51.962Z,997.88
2022-09-29T11:52:51.976Z,997.88
2022-09-29T11:53:52.058Z,997.89
2022-09-29T11:54:51.981Z,997.88
2022-09-29T11:55:51.921Z,997.89
2022-09-29T11:56:51.890Z,997.88
2022-09-29T11:57:51.933Z,997.89
2022-09-29T11:58:51.970Z,997.90
2022-09-29T11:59:51.892Z,997.90
2022-09-29T12:00:51.886Z,997.91
2022-09-29T12:01:51.937Z,997.90
2022-09-29T12:02:51.967Z,997.89
2022-09-29T12:03:51.844Z,997.90
2022-09-29T12:04:51.803Z,997.92
2022-09-29T12:05:51.823Z,997.92
2022-09-29T12:06:51.800Z,997.90
2022-09-29T12:07:51.842Z,997.91
2022-09-29T12:08:51.813Z,997.93
2022-09-29T12:09:51.792Z,997.92
2022-09-29T12:10:51.845Z,997.92
2022-09-29T12:12:11.753Z,997.92
2022-09-29T12:12:51.739Z,997.93
2022-09-29T12:13:51.840Z,997.94
2022-09-29T12:14:51.756Z,997.95
2022-09-29T12:15:51.722Z,997.97
2022-09-29T12:16:51.809Z,997.97
2022-09-29T12:17:51.685Z,997.98
2022-09-29T12:18:51.684Z,997.98
2022-09-29T12:19:51.650Z,997.98
2022-09-29T12:20:51.743Z,997.97
2022-09-29T12:21:51.697Z,997.98
2022-09-29T12:22:51.615Z,997.99
2022-09-29T12:23:51.644Z,997.99
2022-09-29T12:24:51.689Z,998.00
2022-09-29T12:25:51.640Z,998.01
2022-09-29T12:26:51.604Z,998.01
2022-09-29T12:27:51.609Z,998.01
2022-09-29T12:28:51.606Z,998.01